createdAt,value
2019-01-29T00:03:59.311Z,93.60
2019-01-29T00:10:04.076Z,93.10
2019-01-29T00:16:06.358Z,93.20
2019-01-29T00:22:08.601Z,92.70
2019-01-29T00:28:11.050Z,92.70
2019-01-29T00:34:13.264Z,92.90
2019-01-29T00:40:15.377Z,93.40
2019-01-29T00:46:17.503Z,93.40
2019-01-29T00:52:19.706Z,93.40
2019-01-29T00:58:23.177Z,92.80
2019-01-29T01:04:25.480Z,92.60
2019-01-29T01:10:27.787Z,92.60
2019-01-29T01:16:29.893Z,92.40
2019-01-29T01:22:32.760Z,92.40
2019-01-29T01:28:35.996Z,92.30
2019-01-29T01:34:38.403Z,92.20
2019-01-29T01:40:40.882Z,92.30
2019-01-29T01:46:43.240Z,92.30
2019-01-29T01:52:46.483Z,92.20
2019-01-29T01:58:48.790Z,92.40
2019-01-29T02:04:50.911Z,92.30
2019-01-29T02:10:53.260Z,92.60
2019-01-29T02:16:55.403Z,93.10
2019-01-29T02:22:58.869Z,92.80
2019-01-29T02:29:00.978Z,93.10
2019-01-29T02:35:03.332Z,93.20
2019-01-29T02:41:05.593Z,93.20
2019-01-29T02:47:07.850Z,93.50
2019-01-29T02:53:18.161Z,93.60
2019-01-29T02:59:15.385Z,93.50
2019-01-29T03:05:17.815Z,93.40
2019-01-29T03:11:21.183Z,93.20
2019-01-29T03:17:23.551Z,93.10
2019-01-29T03:23:27.653Z,93.00
2019-01-29T03:29:29.748Z,93.20
2019-01-29T03:35:33.250Z,93.10
2019-01-29T03:41:35.918Z,93.10
2019-01-29T03:47:38.026Z,93.10
2019-01-29T03:53:40.135Z,93.10
2019-01-29T03:59:42.431Z,93.10
2019-01-29T04:05:44.622Z,92.80
2019-01-29T04:11:46.928Z,92.70
2019-01-29T04:17:53.417Z,92.50
2019-01-29T04:23:56.992Z,92.60
2019-01-29T04:29:59.120Z,93.20
2019-01-29T04:36:01.419Z,93.50
2019-01-29T04:42:03.840Z,93.10
2019-01-29T04:48:08.284Z,93.40
2019-01-29T04:54:10.390Z,93.40
2019-01-29T05:00:23.719Z,93.40
2019-01-29T05:06:26.012Z,93.40
2019-01-29T05:12:29.418Z,93.10
2019-01-29T05:18:32.220Z,93.20
2019-01-29T05:24:34.552Z,93.20
2019-01-29T05:30:38.038Z,92.80
2019-01-29T05:36:40.299Z,92.50
2019-01-29T05:42:42.627Z,92.30
2019-01-29T05:48:44.721Z,92.00
2019-01-29T05:54:49.242Z,91.70
2019-01-29T06:00:51.574Z,91.50
2019-01-29T06:06:55.370Z,91.70
2019-01-29T06:12:57.863Z,91.10
2019-01-29T06:19:02.264Z,91.00
2019-01-29T06:25:04.643Z,91.10
2019-01-29T06:31:07.212Z,91.20
2019-01-29T06:37:10.956Z,90.60
2019-01-29T06:43:13.097Z,90.80
2019-01-29T06:49:15.343Z,90.90
2019-01-29T06:55:19.066Z,90.90
2019-01-29T07:01:21.745Z,91.70
2019-01-29T07:07:24.147Z,92.20
2019-01-29T07:13:28.734Z,92.30
2019-01-29T07:19:32.266Z,92.30
2019-01-29T07:25:34.416Z,92.10
2019-01-29T07:31:37.325Z,92.00
2019-01-29T07:37:39.574Z,91.90
2019-01-29T07:43:41.710Z,92.10
2019-01-29T07:49:44.437Z,91.50
2019-01-29T07:55:47.271Z,91.60
2019-01-29T08:01:49.843Z,91.70
2019-01-29T08:07:52.145Z,91.30
2019-01-29T08:13:54.265Z,90.90
2019-01-29T08:19:57.175Z,90.90
2019-01-29T08:25:59.501Z,90.50
2019-01-29T08:32:01.661Z,90.10
2019-01-29T08:38:04.128Z,90.00
2019-01-29T08:44:06.315Z,88.90
2019-01-29T08:50:11.674Z,87.80
2019-01-29T08:56:14.152Z,87.10
2019-01-29T09:02:16.478Z,86.50
2019-01-29T09:08:18.761Z,85.30
2019-01-29T09:14:20.966Z,85.70
2019-01-29T09:20:23.123Z,85.00
2019-01-29T09:26:25.423Z,85.50
2019-01-29T09:32:27.922Z,83.20
2019-01-29T09:38:30.328Z,83.30
2019-01-29T09:44:32.487Z,81.90
2019-01-29T09:50:35.246Z,81.60
2019-01-29T09:56:41.828Z,81.70
2019-01-29T10:02:46.091Z,81.40
2019-01-29T10:08:48.220Z,81.30
2019-01-29T10:14:50.514Z,79.30
2019-01-29T10:20:52.650Z,79.50
2019-01-29T10:26:54.985Z,79.60
2019-01-29T10:32:57.200Z,78.70
2019-01-29T10:38:59.350Z,79.70
2019-01-29T10:45:01.747Z,77.40
2019-01-29T10:51:03.909Z,77.00
2019-01-29T10:57:06.383Z,75.00
2019-01-29T11:03:11.660Z,74.80
2019-01-29T11:09:14.423Z,75.40
2019-01-29T11:15:19.590Z,75.90
2019-01-29T11:21:21.737Z,73.20
2019-01-29T11:27:25.186Z,74.30
2019-01-29T11:33:27.343Z,74.10
2019-01-29T11:39:29.814Z,73.40
2019-01-29T11:45:37.806Z,72.30
2019-01-29T11:51:40.087Z,72.70
2019-01-29T11:57:42.412Z,80.40
2019-01-29T12:03:46.220Z,85.40
2019-01-29T12:09:48.791Z,87.30
2019-01-29T12:15:51.219Z,89.30
2019-01-29T12:21:53.327Z,89.50
2019-01-29T12:27:55.790Z,89.30
2019-01-29T12:33:59.423Z,89.80
2019-01-29T12:40:01.832Z,88.80
2019-01-29T12:46:04.902Z,87.70
2019-01-29T12:52:09.118Z,87.30
2019-01-29T12:58:11.360Z,85.30
2019-01-29T13:04:13.736Z,83.90
2019-01-29T13:10:18.815Z,83.30
2019-01-29T13:16:21.274Z,84.20
2019-01-29T13:22:23.393Z,80.00
2019-01-29T13:28:26.346Z,77.20
2019-01-29T13:34:29.001Z,80.30
2019-01-29T13:40:31.410Z,80.30
2019-01-29T13:46:34.041Z,79.50
2019-01-29T13:52:36.752Z,78.20
2019-01-29T13:58:38.894Z,79.10
2019-01-29T14:04:41.166Z,78.70
2019-01-29T14:10:43.601Z,77.70
2019-01-29T14:16:46.026Z,77.80
2019-01-29T14:22:49.462Z,76.00
2019-01-29T14:28:53.252Z,75.00
2019-01-29T14:34:56.191Z,70.00
2019-01-29T14:41:00.748Z,71.10
2019-01-29T14:47:03.935Z,71.70
2019-01-29T14:53:06.378Z,73.00
2019-01-29T14:59:11.771Z,73.30
2019-01-29T15:05:14.049Z,74.30
2019-01-29T15:11:19.167Z,73.80
2019-01-29T15:17:24.303Z,74.50
2019-01-29T15:23:26.468Z,73.60
2019-01-29T15:29:28.821Z,72.60
2019-01-29T15:35:31.524Z,72.00
2019-01-29T15:41:34.059Z,72.60
2019-01-29T15:47:36.510Z,71.20
2019-01-29T15:53:39.106Z,72.80
2019-01-29T15:59:42.965Z,73.20
2019-01-29T16:05:45.495Z,74.20
2019-01-29T16:11:50.573Z,74.20
2019-01-29T16:17:52.795Z,75.20
2019-01-29T16:23:55.424Z,75.80
2019-01-29T16:29:57.819Z,76.30
2019-01-29T16:36:00.425Z,76.70
2019-01-29T16:42:09.655Z,77.50
2019-01-29T16:48:12.970Z,78.30
2019-01-29T16:54:15.676Z,79.10
2019-01-29T17:00:23.170Z,80.10
2019-01-29T17:06:25.415Z,80.60
2019-01-29T17:12:27.595Z,80.30
2019-01-29T17:18:29.969Z,80.80
2019-01-29T17:24:32.943Z,80.40
2019-01-29T17:30:40.187Z,82.00
2019-01-29T17:36:42.431Z,82.50
2019-01-29T17:42:46.093Z,83.20
2019-01-29T17:48:48.565Z,83.90
2019-01-29T17:54:52.013Z,84.30
2019-01-29T18:00:57.811Z,84.10
2019-01-29T18:07:00.175Z,83.80
2019-01-29T18:13:02.764Z,84.20
2019-01-29T18:19:05.954Z,84.20
2019-01-29T18:25:08.875Z,84.50
2019-01-29T18:31:11.288Z,84.60
2019-01-29T18:37:13.676Z,84.60
2019-01-29T18:43:16.070Z,85.20
2019-01-29T18:49:18.281Z,85.90
2019-01-29T18:55:20.672Z,86.00
2019-01-29T19:01:22.887Z,85.30
2019-01-29T19:07:25.024Z,85.30
2019-01-29T19:13:27.414Z,85.90
2019-01-29T19:19:29.790Z,86.60
2019-01-29T19:25:32.056Z,85.70
2019-01-29T19:31:36.073Z,85.60
2019-01-29T19:37:38.293Z,86.40
2019-01-29T19:43:41.494Z,84.70
2019-01-29T19:49:43.742Z,84.60
2019-01-29T19:55:46.065Z,84.30
2019-01-29T20:01:48.579Z,84.50
2019-01-29T20:07:51.049Z,84.80
2019-01-29T20:13:54.455Z,85.00
2019-01-29T20:19:56.725Z,85.20
2019-01-29T20:25:59.257Z,84.60
2019-01-29T20:32:01.752Z,84.10
2019-01-29T20:38:04.617Z,84.20
2019-01-29T20:44:07.816Z,85.50
2019-01-29T20:50:15.975Z,86.30
2019-01-29T20:56:19.027Z,85.70
2019-01-29T21:02:22.558Z,86.00
2019-01-29T21:08:24.937Z,87.00
2019-01-29T21:14:27.248Z,87.70
2019-01-29T21:20:30.598Z,87.90
2019-01-29T21:26:32.763Z,87.10
2019-01-29T21:32:35.062Z,87.80
2019-01-29T21:38:37.315Z,88.90
2019-01-29T21:44:39.599Z,89.90
2019-01-29T21:50:41.918Z,90.00
2019-01-29T21:56:44.151Z,90.00
2019-01-29T22:02:46.375Z,89.10
2019-01-29T22:08:48.611Z,88.70
2019-01-29T22:14:50.730Z,88.70
2019-01-29T22:20:53.239Z,88.70
2019-01-29T22:26:55.875Z,87.90
2019-01-29T22:32:58.284Z,87.50
2019-01-29T22:39:02.883Z,87.60
2019-01-29T22:45:06.735Z,86.60
2019-01-29T22:51:08.846Z,86.00
2019-01-29T22:57:11.209Z,86.00
2019-01-29T23:03:13.419Z,86.20
2019-01-29T23:09:15.632Z,86.20
2019-01-29T23:15:18.505Z,85.80
2019-01-29T23:21:20.978Z,85.10
2019-01-29T23:27:23.250Z,85.10
2019-01-29T23:33:26.222Z,84.60
2019-01-29T23:39:28.507Z,84.50
2019-01-29T23:45:30.750Z,84.30
2019-01-29T23:51:32.891Z,84.30
2019-01-29T23:57:35.019Z,84.30
